createdAt,value
2022-12-31T00:02:43.195Z,26.45
2022-12-31T00:06:17.380Z,20.83
2022-12-31T00:09:41.064Z,27.77
2022-12-31T00:13:07.167Z,23.15
2022-12-31T00:16:34.329Z,29.23
2022-12-31T00:19:58.630Z,23.75
2022-12-31T00:23:23.845Z,23.08
2022-12-31T00:26:47.950Z,22.27
2022-12-31T00:30:12.774Z,23.88
2022-12-31T00:33:36.911Z,18.65
2022-12-31T00:37:01.140Z,22.70
2022-12-31T00:40:26.634Z,26.20
2022-12-31T00:43:51.020Z,23.60
2022-12-31T00:47:15.411Z,21.58
2022-12-31T00:50:39.619Z,26.52
2022-12-31T00:54:03.870Z,27.90
2022-12-31T00:57:29.340Z,26.67
2022-12-31T01:00:53.738Z,26.63
2022-12-31T01:04:23.180Z,26.00
2022-12-31T01:07:47.331Z,24.70
2022-12-31T01:11:23.508Z,23.23
2022-12-31T01:14:49.192Z,20.58
2022-12-31T01:18:13.129Z,23.30
2022-12-31T01:21:39.838Z,12.88
2022-12-31T01:25:03.648Z,21.85
2022-12-31T01:28:27.589Z,27.58
2022-12-31T01:31:53.034Z,15.85
2022-12-31T01:35:17.339Z,15.65
2022-12-31T01:38:41.767Z,20.83
2022-12-31T01:42:06.326Z,16.83
2022-12-31T01:45:30.779Z,19.75
2022-12-31T01:49:02.131Z,15.70
2022-12-31T01:52:31.797Z,19.13
2022-12-31T01:55:59.718Z,18.88
2022-12-31T01:59:27.023Z,20.80
2022-12-31T02:02:54.355Z,20.88
2022-12-31T02:06:23.375Z,16.73
2022-12-31T02:09:47.334Z,17.35
2022-12-31T02:13:11.590Z,17.27
2022-12-31T02:16:45.772Z,17.20
2022-12-31T02:20:44.500Z,16.23
2022-12-31T02:24:39.721Z,17.42
2022-12-31T02:28:17.713Z,12.38
2022-12-31T02:31:51.961Z,19.10
2022-12-31T02:35:20.875Z,18.55
2022-12-31T02:38:48.677Z,15.80
2022-12-31T02:42:13.315Z,15.73
2022-12-31T02:45:40.384Z,12.00
2022-12-31T02:49:12.471Z,17.70
2022-12-31T02:52:47.371Z,11.02
2022-12-31T02:56:20.357Z,15.73
2022-12-31T03:00:10.156Z,12.27
2022-12-31T03:03:35.257Z,17.65
2022-12-31T03:07:02.214Z,15.32
2022-12-31T03:10:26.206Z,18.30
2022-12-31T03:13:49.256Z,15.35
2022-12-31T03:17:13.648Z,19.02
2022-12-31T03:20:57.727Z,16.67
2022-12-31T03:24:42.125Z,22.83
2022-12-31T03:28:12.864Z,20.83
2022-12-31T03:31:39.184Z,18.08
2022-12-31T03:35:05.882Z,15.40
2022-12-31T03:41:55.289Z,15.23
2022-12-31T03:45:19.336Z,17.38
2022-12-31T03:48:43.491Z,17.95
2022-12-31T03:52:08.947Z,21.13
2022-12-31T03:55:33.052Z,18.13
2022-12-31T03:58:58.648Z,17.98
2022-12-31T04:02:28.325Z,21.17
2022-12-31T04:05:56.689Z,22.02
2022-12-31T04:09:21.437Z,15.98
2022-12-31T04:12:45.784Z,17.05
2022-12-31T04:16:12.572Z,21.10
2022-12-31T04:19:36.301Z,19.20
2022-12-31T04:23:00.526Z,20.98
2022-12-31T04:26:24.791Z,17.38
2022-12-31T04:29:48.950Z,19.15
2022-12-31T04:33:14.492Z,18.60
2022-12-31T04:36:39.095Z,20.17
2022-12-31T04:40:06.279Z,16.55
2022-12-31T04:43:31.194Z,21.08
2022-12-31T04:46:54.947Z,22.13
2022-12-31T04:50:20.926Z,18.38
2022-12-31T04:53:44.730Z,20.08
2022-12-31T04:57:09.016Z,21.55
2022-12-31T05:00:32.478Z,21.88
2022-12-31T05:03:56.492Z,22.48
2022-12-31T05:10:49.970Z,20.70
2022-12-31T05:14:13.879Z,20.50
2022-12-31T05:17:37.822Z,18.65
2022-12-31T05:21:02.170Z,20.75
2022-12-31T05:24:30.087Z,22.08
2022-12-31T05:27:54.337Z,18.05
2022-12-31T05:31:18.450Z,22.98
2022-12-31T05:34:42.134Z,16.30
2022-12-31T05:38:06.345Z,20.30
2022-12-31T05:41:31.544Z,19.55
2022-12-31T05:44:55.612Z,20.95
2022-12-31T05:48:19.718Z,17.98
2022-12-31T05:51:43.691Z,21.13
2022-12-31T05:55:08.212Z,17.25
2022-12-31T05:58:33.920Z,18.55
2022-12-31T06:01:58.455Z,20.45
2022-12-31T06:05:26.080Z,12.95
2022-12-31T06:08:51.311Z,16.17
2022-12-31T06:12:15.806Z,13.98
2022-12-31T06:15:41.916Z,20.05
2022-12-31T06:19:06.693Z,18.08
2022-12-31T06:22:30.453Z,21.05
2022-12-31T06:25:54.697Z,19.48
2022-12-31T06:29:18.873Z,17.20
2022-12-31T06:32:44.470Z,16.27
2022-12-31T06:36:11.039Z,20.20
2022-12-31T06:39:35.004Z,14.52
2022-12-31T06:43:00.309Z,19.33
2022-12-31T06:46:29.400Z,19.35
2022-12-31T06:49:54.726Z,14.55
2022-12-31T06:53:19.271Z,14.98
2022-12-31T06:56:43.613Z,14.77
2022-12-31T07:00:10.030Z,18.52
2022-12-31T07:03:41.429Z,13.88
2022-12-31T07:07:16.885Z,14.23
2022-12-31T07:10:50.359Z,13.57
2022-12-31T07:14:27.104Z,16.15
2022-12-31T07:18:02.960Z,13.07
2022-12-31T07:21:36.559Z,16.25
2022-12-31T07:25:02.825Z,15.43
2022-12-31T07:28:39.541Z,11.05
2022-12-31T07:32:12.349Z,15.15
2022-12-31T07:35:46.539Z,12.60
2022-12-31T07:39:14.986Z,12.18
2022-12-31T07:42:51.313Z,15.13
2022-12-31T07:46:20.856Z,13.82
2022-12-31T07:49:46.164Z,11.38
2022-12-31T07:53:11.073Z,8.88
2022-12-31T07:56:35.127Z,11.05
2022-12-31T08:00:07.431Z,12.60
2022-12-31T08:03:49.324Z,15.15
2022-12-31T08:07:22.808Z,11.45
2022-12-31T08:10:56.356Z,9.02
2022-12-31T08:14:21.216Z,9.90
2022-12-31T08:17:47.534Z,10.20
2022-12-31T08:21:21.967Z,11.57
2022-12-31T08:24:57.445Z,13.00
2022-12-31T08:28:31.281Z,10.75
2022-12-31T08:32:08.214Z,12.75
2022-12-31T08:35:49.065Z,13.63
2022-12-31T08:39:25.805Z,10.68
2022-12-31T08:43:07.063Z,11.27
2022-12-31T08:46:36.073Z,14.18
2022-12-31T08:50:00.628Z,9.38
2022-12-31T08:53:27.159Z,9.88
2022-12-31T08:56:57.683Z,7.00
2022-12-31T09:00:23.155Z,12.68
2022-12-31T09:03:59.718Z,8.73
2022-12-31T09:07:33.185Z,9.90
2022-12-31T09:11:04.550Z,9.07
2022-12-31T09:14:47.240Z,11.02
2022-12-31T09:18:13.388Z,9.18
2022-12-31T09:21:41.704Z,7.63
2022-12-31T09:25:06.057Z,9.15
2022-12-31T09:28:43.502Z,8.73
2022-12-31T09:32:17.161Z,8.13
2022-12-31T09:35:47.794Z,9.60
2022-12-31T09:39:17.609Z,6.80
2022-12-31T09:43:01.520Z,9.32
2022-12-31T09:47:02.664Z,6.80
2022-12-31T09:51:04.872Z,8.40
2022-12-31T09:54:45.324Z,7.85
2022-12-31T09:58:20.634Z,6.93
2022-12-31T10:01:55.300Z,6.50
2022-12-31T10:05:36.909Z,7.88
2022-12-31T10:09:36.164Z,8.48
2022-12-31T10:13:18.341Z,4.53
2022-12-31T10:17:01.815Z,5.30
2022-12-31T10:20:55.009Z,8.05
2022-12-31T10:24:41.547Z,8.88
2022-12-31T10:28:15.923Z,8.75
2022-12-31T10:31:41.944Z,7.35
2022-12-31T10:35:21.185Z,7.25
2022-12-31T10:38:57.731Z,8.63
2022-12-31T10:42:50.675Z,7.80
2022-12-31T10:46:48.075Z,8.75
2022-12-31T10:50:39.005Z,9.57
2022-12-31T10:54:30.869Z,7.38
2022-12-31T10:58:40.895Z,9.70
2022-12-31T11:02:25.729Z,9.45
2022-12-31T11:06:23.307Z,8.85
2022-12-31T11:10:13.680Z,7.13
2022-12-31T11:14:09.231Z,4.30
2022-12-31T11:17:42.536Z,4.97
2022-12-31T11:21:26.215Z,6.32
2022-12-31T11:25:07.548Z,5.72
2022-12-31T11:28:56.219Z,6.00
2022-12-31T11:32:32.025Z,7.40
2022-12-31T11:36:15.672Z,4.85
2022-12-31T11:39:50.731Z,7.68
2022-12-31T11:43:27.388Z,6.47
2022-12-31T11:47:05.306Z,7.45
2022-12-31T11:50:41.039Z,6.22
2022-12-31T11:54:33.747Z,6.63
2022-12-31T11:58:03.745Z,8.68
2022-12-31T12:01:34.014Z,7.85
2022-12-31T12:05:06.546Z,7.10
2022-12-31T12:08:35.565Z,7.82
2022-12-31T12:12:00.869Z,6.13
2022-12-31T12:15:28.037Z,8.15
2022-12-31T12:19:05.715Z,8.25
2022-12-31T12:22:31.841Z,8.70
2022-12-31T12:25:56.259Z,7.57
2022-12-31T12:29:21.954Z,9.20
2022-12-31T12:32:54.319Z,5.60
2022-12-31T12:36:22.046Z,7.82
2022-12-31T12:39:56.824Z,6.53
2022-12-31T12:43:24.918Z,5.80
2022-12-31T12:46:50.552Z,7.57
2022-12-31T12:50:18.681Z,6.43
2022-12-31T12:53:52.872Z,5.85
2022-12-31T12:57:22.550Z,7.57
2022-12-31T13:00:54.843Z,7.32
2022-12-31T13:04:34.645Z,6.75
2022-12-31T13:08:12.792Z,7.57
2022-12-31T13:11:47.804Z,7.72
2022-12-31T13:15:18.595Z,6.82
2022-12-31T13:18:53.048Z,8.38
2022-12-31T13:22:24.756Z,8.65
2022-12-31T13:26:01.989Z,7.10
2022-12-31T13:29:31.770Z,13.00
2022-12-31T13:33:02.878Z,10.23
2022-12-31T13:36:30.077Z,5.25
2022-12-31T13:40:01.267Z,7.85
2022-12-31T13:43:38.277Z,6.80
2022-12-31T13:47:13.020Z,8.40
2022-12-31T13:50:44.147Z,8.30
2022-12-31T13:54:20.084Z,8.40
2022-12-31T13:57:46.825Z,6.97
2022-12-31T14:01:20.022Z,6.15
2022-12-31T14:04:50.796Z,7.50
2022-12-31T14:08:14.694Z,7.75
2022-12-31T14:12:01.342Z,9.73
2022-12-31T14:15:31.298Z,7.43
2022-12-31T14:19:06.456Z,7.90
2022-12-31T14:22:40.936Z,7.70
2022-12-31T14:26:09.259Z,5.93
2022-12-31T14:29:40.449Z,5.85
2022-12-31T14:33:20.544Z,7.25
2022-12-31T14:36:54.426Z,7.68
2022-12-31T14:40:28.331Z,7.72
2022-12-31T14:44:05.112Z,6.07
2022-12-31T14:47:42.514Z,6.53
2022-12-31T14:51:07.127Z,8.00
2022-12-31T14:54:38.015Z,5.53
2022-12-31T15:01:49.700Z,7.40
2022-12-31T15:05:18.315Z,5.20
2022-12-31T15:08:52.569Z,7.72
2022-12-31T15:12:33.903Z,7.18
2022-12-31T15:16:28.159Z,8.50
2022-12-31T15:20:23.460Z,7.00
2022-12-31T15:23:47.855Z,7.30
2022-12-31T15:27:35.828Z,7.13
2022-12-31T15:31:06.511Z,5.57
2022-12-31T15:34:35.943Z,5.57
2022-12-31T15:38:02.011Z,6.28
2022-12-31T15:41:29.282Z,8.10
2022-12-31T15:45:03.050Z,5.35
2022-12-31T15:48:33.600Z,5.60
2022-12-31T15:52:05.092Z,6.55
2022-12-31T15:55:33.329Z,5.75
2022-12-31T15:59:00.797Z,7.13
2022-12-31T16:02:27.083Z,9.60
2022-12-31T16:05:51.700Z,7.55
2022-12-31T16:09:26.984Z,6.25
2022-12-31T16:12:51.390Z,8.38
2022-12-31T16:16:25.086Z,7.53
2022-12-31T16:19:49.167Z,6.63
2022-12-31T16:23:22.373Z,8.95
2022-12-31T16:26:58.763Z,6.43
2022-12-31T16:30:24.808Z,9.35
2022-12-31T16:33:49.356Z,8.18
2022-12-31T16:37:17.885Z,8.55
2022-12-31T16:40:42.916Z,6.88
2022-12-31T16:44:26.706Z,6.57
2022-12-31T16:47:51.053Z,7.13
2022-12-31T16:51:20.112Z,8.00
2022-12-31T16:54:49.438Z,6.45
2022-12-31T16:58:20.414Z,8.75
2022-12-31T17:01:49.760Z,8.20
2022-12-31T17:05:22.487Z,7.28
2022-12-31T17:08:51.085Z,7.40
2022-12-31T17:12:17.798Z,6.97
2022-12-31T17:15:44.455Z,5.93
2022-12-31T17:19:19.751Z,6.55
2022-12-31T17:22:45.602Z,6.43
2022-12-31T17:26:12.267Z,4.13
2022-12-31T17:29:36.891Z,7.50
2022-12-31T17:33:01.956Z,5.72
2022-12-31T17:36:29.092Z,7.57
2022-12-31T17:40:10.919Z,6.45
2022-12-31T17:43:43.753Z,4.93
2022-12-31T17:47:14.202Z,8.88
2022-12-31T17:50:48.295Z,5.72
2022-12-31T17:54:16.258Z,7.13
2022-12-31T17:57:50.648Z,6.53
2022-12-31T18:01:17.963Z,8.20
2022-12-31T18:04:42.108Z,4.63
2022-12-31T18:08:06.758Z,5.65
2022-12-31T18:11:32.297Z,7.43
2022-12-31T18:14:58.080Z,5.85
2022-12-31T18:18:25.864Z,5.43
2022-12-31T18:21:49.774Z,6.80
2022-12-31T18:25:17.824Z,7.28
2022-12-31T18:28:43.160Z,4.78
2022-12-31T18:32:07.517Z,8.27
2022-12-31T18:36:07.144Z,6.72
2022-12-31T18:39:15.549Z,5.63
2022-12-31T18:42:40.126Z,6.30
2022-12-31T18:46:06.132Z,7.25
2022-12-31T18:49:30.213Z,7.88
2022-12-31T18:52:54.389Z,7.82
2022-12-31T18:56:21.797Z,6.53
2022-12-31T18:59:46.154Z,6.75
2022-12-31T19:03:16.227Z,8.55
2022-12-31T19:06:40.295Z,5.88
2022-12-31T19:10:03.920Z,6.57
2022-12-31T19:13:28.002Z,7.00
2022-12-31T19:16:53.458Z,7.22
2022-12-31T19:20:19.151Z,6.78
2022-12-31T19:23:42.974Z,7.88
2022-12-31T19:27:07.243Z,7.07
2022-12-31T19:30:33.135Z,8.35
2022-12-31T19:33:57.201Z,8.35
2022-12-31T19:37:22.202Z,7.10
2022-12-31T19:40:46.955Z,8.25
2022-12-31T19:44:15.282Z,5.93
2022-12-31T19:47:39.663Z,6.47
2022-12-31T19:51:05.227Z,11.25
2022-12-31T19:54:31.081Z,5.75
2022-12-31T19:57:56.189Z,6.55
2022-12-31T20:01:23.980Z,7.10
2022-12-31T20:04:47.708Z,6.00
2022-12-31T20:08:12.372Z,6.22
2022-12-31T20:11:37.636Z,5.57
2022-12-31T20:15:03.657Z,6.32
2022-12-31T20:18:27.490Z,8.45
2022-12-31T20:21:51.545Z,6.72
2022-12-31T20:25:15.455Z,7.97
2022-12-31T20:28:41.147Z,8.68
2022-12-31T20:32:05.432Z,8.57
2022-12-31T20:35:31.206Z,7.88
2022-12-31T20:38:55.384Z,8.88
2022-12-31T20:42:19.288Z,6.32
2022-12-31T20:45:45.660Z,8.40
2022-12-31T20:49:12.454Z,7.90
2022-12-31T20:52:36.320Z,5.40
2022-12-31T20:56:05.452Z,7.55
2022-12-31T20:59:29.094Z,7.65
2022-12-31T21:03:04.086Z,6.22
2022-12-31T21:06:33.212Z,8.30
2022-12-31T21:09:57.278Z,7.78
2022-12-31T21:13:23.107Z,8.93
2022-12-31T21:16:46.854Z,6.90
2022-12-31T21:20:13.314Z,8.43
2022-12-31T21:23:37.374Z,7.65
2022-12-31T21:27:00.964Z,7.40
2022-12-31T21:30:25.202Z,7.50
2022-12-31T21:33:49.497Z,6.75
2022-12-31T21:37:15.433Z,8.77
2022-12-31T21:40:39.594Z,8.43
2022-12-31T21:44:04.201Z,6.63
2022-12-31T21:47:47.801Z,6.90
2022-12-31T21:51:14.466Z,8.25
2022-12-31T21:54:56.871Z,6.00
2022-12-31T21:58:28.647Z,6.22
2022-12-31T22:02:10.048Z,7.43
2022-12-31T22:05:36.442Z,8.65
2022-12-31T22:09:00.661Z,7.53
2022-12-31T22:12:26.566Z,8.68
2022-12-31T22:15:58.855Z,6.30
2022-12-31T22:19:26.258Z,8.68
2022-12-31T22:22:53.120Z,7.07
2022-12-31T22:26:18.884Z,4.75
2022-12-31T22:29:44.204Z,5.50
2022-12-31T22:36:31.904Z,8.63
2022-12-31T22:39:56.028Z,4.93
2022-12-31T22:43:19.925Z,5.22
2022-12-31T22:46:46.262Z,6.05
2022-12-31T22:50:10.346Z,7.63
2022-12-31T22:53:35.257Z,6.72
2022-12-31T22:57:01.524Z,5.95
2022-12-31T23:00:40.735Z,6.47
2022-12-31T23:04:06.511Z,7.43
2022-12-31T23:07:30.367Z,6.72
2022-12-31T23:11:01.787Z,8.90
2022-12-31T23:14:42.962Z,10.90
2022-12-31T23:18:24.188Z,9.13
2022-12-31T23:22:06.994Z,8.43
2022-12-31T23:25:33.378Z,7.47
2022-12-31T23:28:57.407Z,8.73
2022-12-31T23:32:24.263Z,6.90
2022-12-31T23:35:48.338Z,6.80
2022-12-31T23:39:13.773Z,7.82
2022-12-31T23:42:37.834Z,7.75
2022-12-31T23:46:01.293Z,7.57
2022-12-31T23:49:25.927Z,7.35
2022-12-31T23:52:49.547Z,7.70
2022-12-31T23:56:23.369Z,7.32
2022-12-31T23:59:47.837Z,6.70
